createdAt,value
2018-05-02T00:00:41.446Z,76.00
2018-05-02T00:03:08.892Z,75.80
2018-05-02T00:05:36.398Z,76.70
2018-05-02T00:08:03.847Z,77.00
2018-05-02T00:10:31.329Z,76.80
2018-05-02T00:12:58.824Z,76.30
2018-05-02T00:15:26.318Z,76.30
2018-05-02T00:17:53.769Z,75.50
2018-05-02T00:20:21.261Z,76.50
2018-05-02T00:22:48.720Z,76.80
2018-05-02T00:25:16.201Z,76.70
2018-05-02T00:27:44.440Z,78.00
2018-05-02T00:30:11.897Z,78.00
2018-05-02T00:32:39.388Z,76.90
2018-05-02T00:35:07.670Z,76.10
2018-05-02T00:37:35.909Z,76.30
2018-05-02T00:40:03.366Z,76.30
2018-05-02T00:42:30.848Z,76.20
2018-05-02T00:44:58.313Z,75.90
2018-05-02T00:47:26.689Z,76.80
2018-05-02T00:49:54.144Z,76.80
2018-05-02T00:52:21.621Z,76.00
2018-05-02T00:54:49.839Z,76.30
2018-05-02T00:57:17.321Z,76.30
2018-05-02T00:59:44.789Z,76.80
2018-05-02T01:02:13.802Z,77.10
2018-05-02T01:04:42.025Z,77.40
2018-05-02T01:07:09.520Z,77.40
2018-05-02T01:09:37.001Z,78.20
2018-05-02T01:12:05.304Z,76.90
2018-05-02T01:14:32.754Z,76.90
2018-05-02T01:17:00.267Z,75.80
2018-05-02T01:19:27.736Z,76.60
2018-05-02T01:21:55.168Z,76.30
2018-05-02T01:24:22.681Z,76.10
2018-05-02T01:26:50.133Z,76.60
2018-05-02T01:29:18.402Z,76.60
2018-05-02T01:31:46.617Z,76.80
2018-05-02T01:34:14.197Z,76.80
2018-05-02T01:36:41.664Z,76.90
2018-05-02T01:39:09.159Z,76.90
2018-05-02T01:41:37.385Z,76.30
2018-05-02T01:44:04.880Z,76.20
2018-05-02T01:46:33.139Z,76.80
2018-05-02T01:49:12.665Z,76.80
2018-05-02T01:51:40.133Z,76.50
2018-05-02T01:54:07.639Z,76.70
2018-05-02T01:56:35.099Z,76.50
2018-05-02T01:59:02.577Z,76.70
2018-05-02T02:01:30.074Z,76.40
2018-05-02T02:03:57.567Z,76.30
2018-05-02T02:06:25.827Z,77.20
2018-05-02T02:08:54.089Z,76.20
2018-05-02T02:11:21.553Z,76.20
2018-05-02T02:13:49.015Z,77.10
2018-05-02T02:16:16.512Z,77.40
2018-05-02T02:18:43.978Z,77.50
2018-05-02T02:21:11.457Z,76.90
2018-05-02T02:23:38.929Z,78.00
2018-05-02T02:26:06.435Z,77.70
2018-05-02T02:28:33.897Z,77.60
2018-05-02T02:31:01.379Z,76.30
2018-05-02T02:33:28.850Z,76.50
2018-05-02T02:35:56.406Z,76.70
2018-05-02T02:38:23.799Z,77.30
2018-05-02T02:40:51.287Z,77.10
2018-05-02T02:43:18.771Z,77.20
2018-05-02T02:45:46.232Z,77.30
2018-05-02T02:48:13.733Z,77.00
2018-05-02T02:50:41.970Z,78.00
2018-05-02T02:53:09.463Z,78.00
2018-05-02T02:55:36.937Z,79.00
2018-05-02T02:58:05.206Z,76.70
2018-05-02T03:00:33.449Z,77.30
2018-05-02T03:03:00.925Z,77.30
2018-05-02T03:05:28.388Z,77.60
2018-05-02T03:07:55.909Z,77.80
2018-05-02T03:10:23.360Z,77.30
2018-05-02T03:12:50.830Z,77.80
2018-05-02T03:15:18.350Z,77.10
2018-05-02T03:17:45.808Z,77.40
2018-05-02T03:20:13.311Z,77.30
2018-05-02T03:22:40.755Z,77.90
2018-05-02T03:25:08.244Z,78.10
2018-05-02T03:27:35.757Z,77.40
2018-05-02T03:30:03.220Z,77.80
2018-05-02T03:32:30.672Z,76.00
2018-05-02T03:34:58.170Z,76.50
2018-05-02T03:37:25.639Z,75.70
2018-05-02T03:39:53.116Z,76.20
2018-05-02T03:42:21.336Z,77.80
2018-05-02T03:44:48.813Z,77.80
2018-05-02T03:47:16.272Z,76.70
2018-05-02T03:49:43.765Z,75.90
2018-05-02T03:52:11.998Z,76.90
2018-05-02T03:54:39.489Z,76.90
2018-05-02T03:57:06.936Z,74.60
2018-05-02T03:59:46.373Z,75.00
2018-05-02T04:02:25.649Z,72.80
2018-05-02T04:05:05.846Z,72.40
2018-05-02T04:07:33.295Z,72.40
2018-05-02T04:10:00.792Z,71.90
2018-05-02T04:12:28.268Z,73.20
2018-05-02T04:14:56.504Z,72.60
2018-05-02T04:17:24.039Z,72.50
2018-05-02T04:19:51.497Z,73.40
2018-05-02T04:22:18.981Z,74.50
2018-05-02T04:24:46.437Z,73.50
2018-05-02T04:27:13.936Z,73.40
2018-05-02T04:29:41.404Z,73.80
2018-05-02T04:32:09.632Z,72.10
2018-05-02T04:34:37.109Z,72.00
2018-05-02T04:37:04.591Z,72.60
2018-05-02T04:39:32.849Z,73.80
2018-05-02T04:42:00.327Z,73.70
2018-05-02T04:44:28.606Z,74.30
2018-05-02T04:46:56.901Z,75.40
2018-05-02T04:49:24.388Z,75.30
2018-05-02T04:51:51.845Z,75.90
2018-05-02T04:54:19.357Z,75.40
2018-05-02T04:56:47.577Z,74.90
2018-05-02T04:59:15.082Z,74.90
2018-05-02T05:01:43.313Z,66.70
2018-05-02T05:04:10.819Z,76.80
2018-05-02T05:06:38.289Z,65.50
2018-05-02T05:09:06.525Z,63.90
2018-05-02T05:11:34.018Z,63.90
2018-05-02T05:14:01.529Z,64.10
2018-05-02T05:16:29.017Z,63.30
2018-05-02T05:18:56.536Z,60.00
2018-05-02T05:21:24.019Z,57.10
2018-05-02T05:23:51.517Z,51.80
2018-05-02T05:26:19.732Z,49.20
2018-05-02T05:28:47.212Z,49.10
2018-05-02T05:31:14.672Z,51.50
2018-05-02T05:33:42.169Z,58.50
2018-05-02T05:36:10.419Z,61.80
2018-05-02T05:38:37.903Z,61.80
2018-05-02T05:41:06.144Z,61.80
2018-05-02T05:43:33.649Z,61.80
2018-05-02T05:46:01.107Z,61.90
2018-05-02T05:48:28.565Z,62.90
2018-05-02T05:50:56.157Z,61.70
2018-05-02T05:53:23.640Z,61.20
2018-05-02T05:55:51.122Z,60.60
2018-05-02T05:58:19.372Z,62.60
2018-05-02T06:00:46.875Z,62.70
2018-05-02T06:03:14.332Z,61.50
2018-05-02T06:05:42.552Z,60.70
2018-05-02T06:08:10.044Z,60.70
2018-05-02T06:10:37.516Z,60.70
2018-05-02T06:13:05.780Z,60.60
2018-05-02T06:15:33.270Z,60.60
2018-05-02T06:18:00.784Z,59.80
2018-05-02T06:20:28.268Z,58.60
2018-05-02T06:22:56.516Z,56.60
2018-05-02T06:25:24.022Z,56.60
2018-05-02T06:27:51.487Z,45.00
2018-05-02T06:30:18.969Z,47.30
2018-05-02T06:32:46.434Z,47.70
2018-05-02T06:35:13.920Z,40.00
2018-05-02T06:37:41.492Z,40.50
2018-05-02T06:40:09.665Z,42.10
2018-05-02T06:42:37.887Z,46.30
2018-05-02T06:45:05.360Z,46.20
2018-05-02T06:47:32.844Z,48.70
2018-05-02T06:50:00.339Z,42.20
2018-05-02T06:52:27.818Z,47.90
2018-05-02T06:54:55.325Z,47.90
2018-05-02T06:57:22.792Z,41.50
2018-05-02T06:59:51.060Z,40.40
2018-05-02T07:02:18.573Z,40.40
2018-05-02T07:04:46.081Z,38.40
2018-05-02T07:07:13.629Z,40.40
2018-05-02T07:09:41.038Z,37.90
2018-05-02T07:12:08.505Z,38.50
2018-05-02T07:14:36.009Z,39.60
2018-05-02T07:17:03.505Z,40.30
2018-05-02T07:19:30.986Z,37.40
2018-05-02T07:21:58.489Z,38.60
2018-05-02T07:24:26.724Z,38.80
2018-05-02T07:26:54.233Z,38.90
2018-05-02T07:29:22.501Z,34.20
2018-05-02T07:31:50.037Z,34.10
2018-05-02T07:34:17.495Z,35.40
2018-05-02T07:36:45.017Z,36.90
2018-05-02T07:39:12.517Z,32.10
2018-05-02T07:41:40.032Z,33.30
2018-05-02T07:44:07.525Z,34.80
2018-05-02T07:46:35.032Z,34.50
2018-05-02T07:49:03.306Z,32.00
2018-05-02T07:51:31.570Z,32.40
2018-05-02T07:53:59.806Z,34.80
2018-05-02T07:56:27.323Z,34.70
2018-05-02T07:58:54.816Z,31.80
2018-05-02T08:01:22.324Z,30.00
2018-05-02T08:03:49.796Z,31.40
2018-05-02T08:06:18.036Z,30.00
2018-05-02T08:08:45.533Z,30.00
2018-05-02T08:11:13.786Z,29.30
2018-05-02T08:13:41.292Z,29.10
2018-05-02T08:16:08.766Z,28.40
2018-05-02T08:18:36.284Z,28.60
2018-05-02T08:21:04.530Z,28.60
2018-05-02T08:23:32.049Z,28.60
2018-05-02T08:25:59.535Z,29.10
2018-05-02T08:28:27.032Z,27.40
2018-05-02T08:30:55.277Z,27.50
2018-05-02T08:33:22.745Z,27.60
2018-05-02T08:35:50.273Z,27.30
2018-05-02T08:38:17.781Z,27.70
2018-05-02T08:40:45.273Z,26.90
2018-05-02T08:43:12.765Z,27.40
2018-05-02T08:45:40.258Z,27.80
2018-05-02T08:48:08.532Z,28.00
2018-05-02T08:50:36.811Z,28.80
2018-05-02T08:53:04.288Z,28.60
2018-05-02T08:55:32.563Z,28.10
2018-05-02T08:58:00.940Z,28.10
2018-05-02T09:00:28.463Z,28.00
2018-05-02T09:02:55.924Z,27.90
2018-05-02T09:05:23.420Z,27.90
2018-05-02T09:07:51.674Z,28.40
2018-05-02T09:10:20.688Z,29.50
2018-05-02T09:12:48.921Z,28.80
2018-05-02T09:15:16.402Z,28.80
2018-05-02T09:17:43.873Z,28.90
2018-05-02T09:20:12.164Z,29.50
2018-05-02T09:22:40.388Z,30.10
2018-05-02T09:25:07.849Z,30.00
2018-05-02T09:27:35.362Z,29.90
2018-05-02T09:30:02.832Z,29.90
2018-05-02T09:32:30.368Z,29.50
2018-05-02T09:34:58.620Z,30.30
2018-05-02T09:37:26.876Z,28.50
2018-05-02T09:39:54.337Z,28.30
2018-05-02T09:42:21.824Z,29.70
2018-05-02T09:44:49.301Z,31.30
2018-05-02T09:47:17.550Z,29.50
2018-05-02T09:49:45.044Z,29.50
2018-05-02T09:52:13.293Z,29.90
2018-05-02T09:54:40.780Z,29.80
2018-05-02T09:57:08.268Z,29.40
2018-05-02T09:59:35.745Z,29.40
2018-05-02T10:02:03.218Z,29.80
2018-05-02T10:04:30.718Z,30.00
2018-05-02T10:06:58.210Z,31.30
2018-05-02T10:09:25.714Z,30.00
2018-05-02T10:11:53.145Z,30.10
2018-05-02T10:14:20.663Z,30.00
2018-05-02T10:16:48.135Z,30.90
2018-05-02T10:19:15.639Z,30.00
2018-05-02T10:21:43.117Z,29.90
2018-05-02T10:24:11.373Z,30.00
2018-05-02T10:26:38.836Z,30.00
2018-05-02T10:29:07.097Z,30.20
2018-05-02T10:31:34.603Z,30.20
2018-05-02T10:34:02.101Z,30.70
2018-05-02T10:36:29.565Z,30.50
2018-05-02T10:38:57.077Z,29.90
2018-05-02T10:41:24.578Z,31.20
2018-05-02T10:43:52.232Z,30.00
2018-05-02T10:46:19.738Z,31.60
2018-05-02T10:48:47.972Z,30.90
2018-05-02T10:51:15.460Z,30.90
2018-05-02T10:53:43.693Z,33.60
2018-05-02T10:56:11.180Z,33.60
2018-05-02T10:58:39.424Z,31.30
2018-05-02T11:01:06.930Z,31.20
2018-05-02T11:03:34.396Z,30.50
2018-05-02T11:06:02.664Z,30.50
2018-05-02T11:08:30.165Z,30.50
2018-05-02T11:10:57.671Z,31.50
2018-05-02T11:13:25.163Z,30.50
2018-05-02T11:15:53.380Z,30.50
2018-05-02T11:18:20.869Z,30.60
2018-05-02T11:20:48.349Z,32.40
2018-05-02T11:23:16.641Z,32.30
2018-05-02T11:25:44.149Z,32.30
2018-05-02T11:28:11.608Z,31.10
2018-05-02T11:30:39.101Z,30.30
2018-05-02T11:33:07.360Z,31.70
2018-05-02T11:35:34.844Z,31.70
2018-05-02T11:38:02.363Z,30.70
2018-05-02T11:40:29.844Z,30.40
2018-05-02T11:42:58.088Z,28.60
2018-05-02T11:45:25.547Z,28.50
2018-05-02T11:47:53.061Z,28.90
2018-05-02T11:50:20.549Z,29.10
2018-05-02T11:52:48.016Z,29.40
2018-05-02T11:55:15.500Z,29.10
2018-05-02T11:57:42.985Z,29.10
2018-05-02T12:00:11.282Z,29.30
2018-05-02T12:02:38.785Z,29.20
2018-05-02T12:05:06.241Z,29.20
2018-05-02T12:07:33.749Z,29.60
2018-05-02T12:10:01.243Z,29.50
2018-05-02T12:12:28.780Z,29.00
2018-05-02T12:14:56.260Z,30.00
2018-05-02T12:17:23.763Z,29.70
2018-05-02T12:19:52.005Z,29.50
2018-05-02T12:22:19.531Z,29.50
2018-05-02T12:24:46.999Z,29.80
2018-05-02T12:27:14.496Z,29.10
2018-05-02T12:29:41.977Z,29.70
2018-05-02T12:32:10.240Z,29.60
2018-05-02T12:34:37.718Z,29.60
2018-05-02T12:37:05.983Z,30.00
2018-05-02T12:39:33.471Z,30.00
2018-05-02T12:42:00.966Z,32.30
2018-05-02T12:44:28.449Z,31.20
2018-05-02T12:46:57.447Z,30.30
2018-05-02T12:49:25.692Z,31.80
2018-05-02T12:51:53.201Z,31.60
2018-05-02T12:54:21.457Z,32.20
2018-05-02T12:56:48.937Z,31.90
2018-05-02T12:59:16.437Z,30.50
2018-05-02T13:01:43.920Z,29.80
2018-05-02T13:04:11.424Z,29.90
2018-05-02T13:06:39.673Z,29.20
2018-05-02T13:09:07.908Z,29.70
2018-05-02T13:11:35.356Z,29.70
2018-05-02T13:14:02.833Z,29.60
2018-05-02T13:16:30.299Z,29.80
2018-05-02T13:18:57.798Z,28.80
2018-05-02T13:21:26.049Z,29.50
2018-05-02T13:23:54.348Z,29.80
2018-05-02T13:26:22.615Z,29.70
2018-05-02T13:28:50.900Z,29.40
2018-05-02T13:31:19.149Z,30.10
2018-05-02T13:33:46.636Z,30.10
2018-05-02T13:36:14.884Z,29.50
2018-05-02T13:38:42.368Z,29.50
2018-05-02T13:41:10.597Z,30.80
2018-05-02T13:43:38.113Z,30.50
2018-05-02T13:46:06.338Z,30.80
2018-05-02T13:48:33.848Z,30.80
2018-05-02T13:51:02.131Z,31.80
2018-05-02T13:53:30.418Z,31.10
2018-05-02T13:55:57.900Z,30.90
2018-05-02T13:58:25.372Z,30.80
2018-05-02T14:00:52.904Z,30.00
2018-05-02T14:03:20.382Z,30.00
2018-05-02T14:05:47.873Z,30.40
2018-05-02T14:08:15.392Z,30.00
2018-05-02T14:10:42.877Z,31.00
2018-05-02T14:13:10.361Z,31.20
2018-05-02T14:15:38.649Z,31.30
2018-05-02T14:18:06.120Z,31.40
2018-05-02T14:20:33.620Z,30.10
2018-05-02T14:23:01.100Z,32.40
2018-05-02T14:25:28.637Z,31.40
2018-05-02T14:27:56.136Z,31.00
2018-05-02T14:30:24.396Z,30.00
2018-05-02T14:32:51.968Z,30.00
2018-05-02T14:35:19.430Z,30.90
2018-05-02T14:37:47.664Z,30.70
2018-05-02T14:40:15.150Z,30.70
2018-05-02T14:42:42.645Z,30.10
2018-05-02T14:45:10.140Z,30.00
2018-05-02T14:47:38.576Z,30.10
2018-05-02T14:50:06.978Z,30.00
2018-05-02T14:52:34.489Z,30.00
2018-05-02T14:55:02.721Z,30.50
2018-05-02T14:57:30.236Z,30.50
2018-05-02T14:59:58.458Z,29.40
2018-05-02T15:02:26.567Z,29.30
2018-05-02T15:04:54.078Z,30.50
2018-05-02T15:07:21.569Z,29.70
2018-05-02T15:09:49.033Z,29.60
2018-05-02T15:12:16.551Z,29.80
2018-05-02T15:14:44.011Z,29.50
2018-05-02T15:17:11.515Z,29.30
2018-05-02T15:19:38.965Z,29.30
2018-05-02T15:22:06.458Z,29.70
2018-05-02T15:24:34.766Z,29.50
2018-05-02T15:27:02.192Z,29.50
2018-05-02T15:29:30.473Z,28.90
2018-05-02T15:31:57.997Z,28.90
2018-05-02T15:34:25.512Z,29.10
2018-05-02T15:36:52.984Z,29.80
2018-05-02T15:39:20.464Z,30.00
2018-05-02T15:41:48.434Z,29.60
2018-05-02T15:44:15.975Z,29.60
2018-05-02T15:46:43.441Z,30.00
2018-05-02T15:49:11.009Z,29.80
2018-05-02T15:51:38.452Z,31.10
2018-05-02T15:54:05.950Z,31.00
2018-05-02T15:56:33.439Z,30.50
2018-05-02T15:59:01.706Z,29.90
2018-05-02T16:01:29.952Z,30.90
2018-05-02T16:03:58.966Z,30.50
2018-05-02T16:06:26.451Z,30.50
2018-05-02T16:08:53.901Z,30.70
2018-05-02T16:11:22.174Z,30.50
2018-05-02T16:13:50.427Z,30.00
2018-05-02T16:16:17.930Z,30.00
2018-05-02T16:18:45.397Z,29.90
2018-05-02T16:21:12.888Z,30.80
2018-05-02T16:23:40.348Z,30.00
2018-05-02T16:26:07.898Z,30.60
2018-05-02T16:28:35.409Z,30.50
2018-05-02T16:31:02.921Z,30.30
2018-05-02T16:33:30.458Z,29.90
2018-05-02T16:35:57.909Z,30.40
2018-05-02T16:38:25.409Z,30.40
2018-05-02T16:40:52.901Z,29.50
2018-05-02T16:43:21.183Z,29.70
2018-05-02T16:45:49.419Z,30.10
2018-05-02T16:48:16.926Z,30.00
2018-05-02T16:50:44.403Z,29.80
2018-05-02T16:53:11.897Z,29.30
2018-05-02T16:55:39.356Z,29.40
2018-05-02T16:58:06.851Z,30.30
2018-05-02T17:00:34.316Z,31.90
2018-05-02T17:03:01.808Z,30.80
2018-05-02T17:05:29.272Z,31.00
2018-05-02T17:07:56.769Z,30.90
2018-05-02T17:10:25.037Z,31.50
2018-05-02T17:12:52.522Z,31.20
2018-05-02T17:15:20.037Z,31.40
2018-05-02T17:17:47.500Z,31.10
2018-05-02T17:20:15.021Z,30.70
2018-05-02T17:22:42.523Z,30.80
2018-05-02T17:25:10.040Z,30.30
2018-05-02T17:27:37.544Z,31.00
2018-05-02T17:30:05.106Z,31.00
2018-05-02T17:32:32.609Z,30.90
2018-05-02T17:35:00.092Z,31.30
2018-05-02T17:37:27.591Z,30.80
2018-05-02T17:39:55.847Z,30.90
2018-05-02T17:42:23.369Z,30.90
2018-05-02T17:44:50.862Z,31.10
2018-05-02T17:47:18.364Z,31.10
2018-05-02T17:49:45.876Z,31.10
2018-05-02T17:52:14.904Z,30.80
2018-05-02T17:54:43.152Z,31.10
2018-05-02T17:57:10.670Z,30.90
2018-05-02T17:59:38.915Z,32.20
2018-05-02T18:02:07.199Z,31.60
2018-05-02T18:04:35.429Z,31.80
2018-05-02T18:07:02.932Z,31.50
2018-05-02T18:09:31.145Z,32.10
2018-05-02T18:11:58.674Z,32.10
2018-05-02T18:14:26.903Z,31.90
2018-05-02T18:16:54.441Z,31.90
2018-05-02T18:19:21.931Z,32.10
2018-05-02T18:21:49.392Z,32.30
2018-05-02T18:24:16.885Z,32.20
2018-05-02T18:26:44.359Z,32.20
2018-05-02T18:29:11.857Z,32.00
2018-05-02T18:31:39.324Z,31.80
2018-05-02T18:34:07.585Z,31.70
2018-05-02T18:36:35.041Z,31.80
2018-05-02T18:39:02.544Z,31.70
2018-05-02T18:41:30.817Z,31.90
2018-05-02T18:43:59.068Z,32.10
2018-05-02T18:46:26.547Z,32.10
2018-05-02T18:48:54.820Z,32.00
2018-05-02T18:51:22.325Z,32.00
2018-05-02T18:53:49.839Z,31.50
2018-05-02T18:56:18.837Z,31.50
2018-05-02T18:58:47.117Z,31.60
2018-05-02T19:01:15.453Z,31.80
2018-05-02T19:03:42.921Z,31.60
2018-05-02T19:06:10.423Z,31.50
2018-05-02T19:08:38.664Z,31.40
2018-05-02T19:11:06.190Z,31.40
2018-05-02T19:13:39.326Z,31.30
2018-05-02T19:16:06.805Z,31.90
2018-05-02T19:18:40.888Z,31.80
2018-05-02T19:21:09.909Z,31.10
2018-05-02T19:23:38.185Z,31.70
2018-05-02T19:26:12.012Z,31.90
2018-05-02T19:28:39.513Z,31.70
2018-05-02T19:31:12.689Z,32.20
2018-05-02T19:33:45.868Z,31.90
2018-05-02T19:36:13.343Z,32.90
2018-05-02T19:38:40.881Z,32.60
2018-05-02T19:41:14.015Z,32.60
2018-05-02T19:43:47.283Z,33.90
2018-05-02T19:46:14.736Z,33.80
2018-05-02T19:48:42.252Z,33.50
2018-05-02T19:51:16.336Z,33.30
2018-05-02T19:53:44.540Z,33.10
2018-05-02T19:56:12.008Z,33.10
2018-05-02T19:58:39.531Z,33.30
2018-05-02T20:01:12.795Z,33.20
2018-05-02T20:03:40.304Z,33.40
2018-05-02T20:06:07.792Z,33.20
2018-05-02T20:08:40.900Z,33.00
2018-05-02T20:11:14.243Z,33.20
2018-05-02T20:13:47.566Z,33.50
2018-05-02T20:16:15.044Z,33.70
2018-05-02T20:18:42.538Z,33.60
2018-05-02T20:21:10.025Z,33.70
2018-05-02T20:23:37.570Z,33.80
2018-05-02T20:26:05.051Z,34.20
2018-05-02T20:28:33.272Z,33.30
2018-05-02T20:31:00.836Z,33.30
2018-05-02T20:33:28.309Z,34.10
2018-05-02T20:35:55.815Z,33.80
2018-05-02T20:38:24.057Z,33.30
2018-05-02T20:40:51.567Z,33.10
2018-05-02T20:43:19.080Z,33.50
2018-05-02T20:45:46.583Z,33.70
2018-05-02T20:48:14.057Z,33.00
2018-05-02T20:50:41.549Z,32.80
2018-05-02T20:53:09.010Z,32.60
2018-05-02T20:55:37.294Z,32.20
2018-05-02T20:58:04.785Z,32.40
2018-05-02T21:00:32.300Z,32.60
2018-05-02T21:02:59.788Z,32.40
2018-05-02T21:05:27.583Z,32.40
2018-05-02T21:07:55.385Z,32.60
2018-05-02T21:10:22.869Z,33.00
2018-05-02T21:12:51.162Z,33.30
2018-05-02T21:15:19.409Z,34.50
2018-05-02T21:17:46.869Z,34.50
2018-05-02T21:20:14.376Z,34.50
2018-05-02T21:22:41.836Z,35.40
2018-05-02T21:25:09.410Z,36.20
2018-05-02T21:27:36.904Z,36.50
2018-05-02T21:30:04.381Z,35.60
2018-05-02T21:32:32.630Z,35.10
2018-05-02T21:35:00.124Z,34.90
2018-05-02T21:37:28.408Z,34.40
2018-05-02T21:39:56.673Z,34.50
2018-05-02T21:42:24.932Z,34.50
2018-05-02T21:44:53.912Z,34.60
2018-05-02T21:47:21.415Z,34.50
2018-05-02T21:49:48.885Z,34.90
2018-05-02T21:52:16.401Z,34.80
2018-05-02T21:54:43.869Z,38.10
2018-05-02T21:57:12.125Z,40.20
2018-05-02T21:59:43.069Z,40.00
2018-05-02T22:02:11.394Z,38.30
2018-05-02T22:04:38.857Z,38.30
2018-05-02T22:07:06.373Z,37.20
2018-05-02T22:09:33.852Z,34.40
2018-05-02T22:12:01.326Z,35.40
2018-05-02T22:14:28.829Z,38.00
2018-05-02T22:16:56.333Z,38.20
2018-05-02T22:19:24.585Z,39.60
2018-05-02T22:21:52.058Z,39.60
2018-05-02T22:24:20.329Z,45.80
2018-05-02T22:26:47.785Z,45.80
2018-05-02T22:29:16.060Z,47.50
2018-05-02T22:31:44.009Z,47.50
2018-05-02T22:34:11.532Z,47.50
2018-05-02T22:36:39.030Z,48.90
2018-05-02T22:39:06.480Z,49.40
2018-05-02T22:41:33.981Z,53.50
2018-05-02T22:44:01.483Z,50.90
2018-05-02T22:46:28.993Z,48.40
2018-05-02T22:48:57.250Z,48.00
2018-05-02T22:51:24.728Z,48.00
2018-05-02T22:53:52.993Z,47.70
2018-05-02T22:56:21.255Z,48.10
2018-05-02T22:58:48.736Z,48.10
2018-05-02T23:01:16.977Z,51.80
2018-05-02T23:03:44.449Z,51.80
2018-05-02T23:06:11.940Z,53.80
2018-05-02T23:08:39.448Z,55.10
2018-05-02T23:11:06.938Z,56.40
2018-05-02T23:13:34.428Z,55.80
2018-05-02T23:16:01.899Z,54.20
2018-05-02T23:18:29.398Z,56.00
2018-05-02T23:20:56.873Z,51.70
2018-05-02T23:23:24.362Z,50.70
2018-05-02T23:25:51.856Z,52.30
2018-05-02T23:28:19.362Z,50.40
2018-05-02T23:30:47.569Z,53.30
2018-05-02T23:33:15.035Z,53.20
2018-05-02T23:35:42.536Z,52.30
2018-05-02T23:38:09.996Z,54.80
2018-05-02T23:40:37.491Z,57.30
2018-05-02T23:43:04.956Z,57.60
2018-05-02T23:45:32.457Z,55.40
2018-05-02T23:47:59.925Z,54.00
2018-05-02T23:50:27.412Z,54.90
2018-05-02T23:52:54.865Z,51.80
2018-05-02T23:55:23.136Z,47.30
2018-05-02T23:57:51.424Z,47.10
